ADDS METAR Data

Data at: 0255 UTC 21 Jun 2018

METAR for:KEWR (Newark Intl, NJ, US)
Text:KEWR 210251Z 12004KT 10SM -RA OVC055 23/19 A2977 RMK AO2 RAB49 SLP080 P0000 60000 T02330194 52001
Temperature: 23.3°C ( 74°F)
Dewpoint: 19.4°C ( 67°F) [RH = 79%]
Pressure (altimeter):29.77 inches Hg (1008.2 mb) [Sea level pressure: 1008.0 mb]
Winds:from the ESE (120 degrees) at 5 MPH (4 knots; 2.1 m/s)
Visibility:10 or more sm (16+ km)
Ceiling:5500 feet AGL
Clouds: overcast cloud deck at 5500 feet AGL
Weather:-RA (light rain)